sensor_id;sensor_type;location;lat;lon;timestamp;pressure;altitude;pressure_sealevel;temperature;humidity
55022;BME280;68328;35.990;-86.756;2023-04-15T00:01:48;98421.83;;;21.24;37.68
55022;BME280;68328;35.990;-86.756;2023-04-15T00:04:14;98424.70;;;20.93;37.86
55022;BME280;68328;35.990;-86.756;2023-04-15T00:06:39;98425.98;;;22.84;35.08
55022;BME280;68328;35.990;-86.756;2023-04-15T00:09:04;98433.21;;;23.39;34.28
55022;BME280;68328;35.990;-86.756;2023-04-15T00:11:31;98433.79;;;20.45;38.48
55022;BME280;68328;35.990;-86.756;2023-04-15T00:13:55;98436.88;;;20.87;38.05
55022;BME280;68328;35.990;-86.756;2023-04-15T00:16:20;98435.41;;;22.52;35.81
55022;BME280;68328;35.990;-86.756;2023-04-15T00:18:47;98441.33;;;23.72;34.59
55022;BME280;68328;35.990;-86.756;2023-04-15T00:21:12;98443.24;;;24.12;33.50
55022;BME280;68328;35.990;-86.756;2023-04-15T00:23:38;98442.14;;;24.18;33.43
55022;BME280;68328;35.990;-86.756;2023-04-15T00:26:04;98438.04;;;24.29;33.33
55022;BME280;68328;35.990;-86.756;2023-04-15T00:28:29;98437.09;;;24.13;33.62
55022;BME280;68328;35.990;-86.756;2023-04-15T00:30:55;98435.88;;;23.75;33.56
55022;BME280;68328;35.990;-86.756;2023-04-15T00:33:20;98438.89;;;24.06;33.47
55022;BME280;68328;35.990;-86.756;2023-04-15T00:35:45;98443.36;;;24.27;32.97
55022;BME280;68328;35.990;-86.756;2023-04-15T00:38:10;98445.20;;;24.23;33.84
55022;BME280;68328;35.990;-86.756;2023-04-15T00:40:37;98450.39;;;23.99;34.00
55022;BME280;68328;35.990;-86.756;2023-04-15T00:43:02;98451.47;;;23.86;34.08
55022;BME280;68328;35.990;-86.756;2023-04-15T00:45:28;98453.91;;;23.85;33.93
55022;BME280;68328;35.990;-86.756;2023-04-15T00:47:59;98456.93;;;23.18;34.45
55022;BME280;68328;35.990;-86.756;2023-04-15T00:50:18;98460.85;;;24.02;34.54
55022;BME280;68328;35.990;-86.756;2023-04-15T00:57:35;98458.77;;;23.38;34.77
55022;BME280;68328;35.990;-86.756;2023-04-15T01:00:00;98458.70;;;23.78;35.45
55022;BME280;68328;35.990;-86.756;2023-04-15T01:02:25;98458.12;;;23.20;35.38
55022;BME280;68328;35.990;-86.756;2023-04-15T01:04:50;98460.29;;;23.65;35.10
55022;BME280;68328;35.990;-86.756;2023-04-15T01:07:15;98461.18;;;23.66;34.95
55022;BME280;68328;35.990;-86.756;2023-04-15T01:09:41;98464.25;;;23.51;36.07
55022;BME280;68328;35.990;-86.756;2023-04-15T01:12:06;98466.76;;;23.43;35.69
55022;BME280;68328;35.990;-86.756;2023-04-15T01:14:33;98470.12;;;23.39;36.08
55022;BME280;68328;35.990;-86.756;2023-04-15T01:16:58;98473.23;;;22.96;36.38
55022;BME280;68328;35.990;-86.756;2023-04-15T01:19:23;98470.27;;;21.15;38.47
55022;BME280;68328;35.990;-86.756;2023-04-15T01:21:48;98469.51;;;21.79;37.55
55022;BME280;68328;35.990;-86.756;2023-04-15T01:24:16;98470.35;;;22.72;36.34
55022;BME280;68328;35.990;-86.756;2023-04-15T01:26:40;98474.14;;;22.66;36.30
55022;BME280;68328;35.990;-86.756;2023-04-15T01:29:04;98477.26;;;22.96;35.92
55022;BME280;68328;35.990;-86.756;2023-04-15T01:31:29;98479.05;;;23.05;36.21
55022;BME280;68328;35.990;-86.756;2023-04-15T01:33:55;98486.20;;;21.52;37.99
55022;BME280;68328;35.990;-86.756;2023-04-15T01:36:21;98490.96;;;22.57;36.95
55022;BME280;68328;35.990;-86.756;2023-04-15T01:38:46;98492.91;;;22.56;36.81
55022;BME280;68328;35.990;-86.756;2023-04-15T01:41:11;98497.68;;;22.68;36.43
55022;BME280;68328;35.990;-86.756;2023-04-15T01:43:37;98504.31;;;22.43;36.82
55022;BME280;68328;35.990;-86.756;2023-04-15T01:46:02;98507.61;;;21.82;37.78
55022;BME280;68328;35.990;-86.756;2023-04-15T01:48:28;98512.12;;;21.55;38.46
55022;BME280;68328;35.990;-86.756;2023-04-15T01:50:54;98512.83;;;20.76;39.41
55022;BME280;68328;35.990;-86.756;2023-04-15T01:53:18;98520.38;;;21.72;37.78
55022;BME280;68328;35.990;-86.756;2023-04-15T01:55:43;98525.65;;;21.23;38.54
55022;BME280;68328;35.990;-86.756;2023-04-15T01:58:08;98532.73;;;21.59;38.55
55022;BME280;68328;35.990;-86.756;2023-04-15T02:00:34;98536.55;;;22.13;37.88
55022;BME280;68328;35.990;-86.756;2023-04-15T02:02:58;98541.03;;;21.87;37.91
55022;BME280;68328;35.990;-86.756;2023-04-15T02:05:24;98542.67;;;21.21;39.27
55022;BME280;68328;35.990;-86.756;2023-04-15T02:07:49;98545.81;;;21.96;38.16
55022;BME280;68328;35.990;-86.756;2023-04-15T02:10:14;98550.08;;;20.75;40.27
55022;BME280;68328;35.990;-86.756;2023-04-15T02:12:39;98551.32;;;21.20;40.24
55022;BME280;68328;35.990;-86.756;2023-04-15T02:15:06;98551.68;;;21.56;38.99
55022;BME280;68328;35.990;-86.756;2023-04-15T02:17:32;98551.82;;;21.74;38.82
55022;BME280;68328;35.990;-86.756;2023-04-15T02:19:55;98552.55;;;21.83;38.14
55022;BME280;68328;35.990;-86.756;2023-04-15T02:22:20;98553.13;;;21.07;39.55
55022;BME280;68328;35.990;-86.756;2023-04-15T02:24:46;98554.91;;;21.63;38.95
55022;BME280;68328;35.990;-86.756;2023-04-15T02:27:15;98555.58;;;21.27;39.64
55022;BME280;68328;35.990;-86.756;2023-04-15T02:29:37;98559.58;;;21.82;38.55
55022;BME280;68328;35.990;-86.756;2023-04-15T02:32:02;98561.06;;;21.86;38.51
55022;BME280;68328;35.990;-86.756;2023-04-15T02:34:28;98568.92;;;21.92;38.84
55022;BME280;68328;35.990;-86.756;2023-04-15T02:36:54;98574.14;;;21.85;38.92
55022;BME280;68328;35.990;-86.756;2023-04-15T02:39:19;98579.67;;;21.30;39.42
55022;BME280;68328;35.990;-86.756;2023-04-15T02:41:44;98583.82;;;20.82;40.55
55022;BME280;68328;35.990;-86.756;2023-04-15T02:44:09;98583.25;;;20.90;40.61
55022;BME280;68328;35.990;-86.756;2023-04-15T02:46:34;98589.33;;;20.74;40.78
55022;BME280;68328;35.990;-86.756;2023-04-15T02:49:00;98589.47;;;20.05;41.76
55022;BME280;68328;35.990;-86.756;2023-04-15T02:51:25;98596.71;;;19.72;42.26
55022;BME280;68328;35.990;-86.756;2023-04-15T02:53:50;98593.72;;;18.66;44.01
55022;BME280;68328;35.990;-86.756;2023-04-15T02:56:16;98600.15;;;20.59;41.21
55022;BME280;68328;35.990;-86.756;2023-04-15T02:58:41;98607.35;;;19.70;42.59
55022;BME280;68328;35.990;-86.756;2023-04-15T03:01:06;98608.02;;;20.01;42.56
55022;BME280;68328;35.990;-86.756;2023-04-15T03:03:31;98607.47;;;20.63;40.88
55022;BME280;68328;35.990;-86.756;2023-04-15T03:05:58;98608.67;;;21.34;40.33
55022;BME280;68328;35.990;-86.756;2023-04-15T03:08:22;98611.15;;;20.83;41.06
55022;BME280;68328;35.990;-86.756;2023-04-15T03:10:48;98612.06;;;21.06;40.61
55022;BME280;68328;35.990;-86.756;2023-04-15T03:13:14;98609.81;;;21.35;40.29
55022;BME280;68328;35.990;-86.756;2023-04-15T03:15:38;98610.98;;;21.49;39.90
55022;BME280;68328;35.990;-86.756;2023-04-15T03:18:05;98614.38;;;21.31;40.02
55022;BME280;68328;35.990;-86.756;2023-04-15T03:20:30;98613.26;;;21.27;39.77
55022;BME280;68328;35.990;-86.756;2023-04-15T03:22:54;98611.69;;;21.42;40.08
55022;BME280;68328;35.990;-86.756;2023-04-15T03:25:20;98611.81;;;21.19;40.46
55022;BME280;68328;35.990;-86.756;2023-04-15T03:27:45;98608.86;;;21.03;40.83
55022;BME280;68328;35.990;-86.756;2023-04-15T03:30:10;98611.58;;;21.02;40.84
55022;BME280;68328;35.990;-86.756;2023-04-15T03:32:35;98617.44;;;20.96;40.89
55022;BME280;68328;35.990;-86.756;2023-04-15T03:35:00;98623.84;;;20.88;41.15
55022;BME280;68328;35.990;-86.756;2023-04-15T03:37:25;98627.19;;;21.02;41.25
55022;BME280;68328;35.990;-86.756;2023-04-15T03:39:51;98625.92;;;20.76;41.50
55022;BME280;68328;35.990;-86.756;2023-04-15T03:42:16;98629.00;;;20.94;41.15
55022;BME280;68328;35.990;-86.756;2023-04-15T03:44:41;98630.87;;;20.76;41.51
55022;BME280;68328;35.990;-86.756;2023-04-15T03:47:06;98633.00;;;20.56;41.76
55022;BME280;68328;35.990;-86.756;2023-04-15T03:49:32;98638.03;;;20.55;41.84
55022;BME280;68328;35.990;-86.756;2023-04-15T03:51:58;98637.55;;;20.61;42.17
55022;BME280;68328;35.990;-86.756;2023-04-15T03:54:23;98636.80;;;20.48;41.98
55022;BME280;68328;35.990;-86.756;2023-04-15T03:56:48;98634.97;;;20.68;42.13
55022;BME280;68328;35.990;-86.756;2023-04-15T03:59:13;98639.61;;;20.79;41.95
55022;BME280;68328;35.990;-86.756;2023-04-15T04:01:39;98643.66;;;20.63;42.12
55022;BME280;68328;35.990;-86.756;2023-04-15T04:04:05;98642.04;;;20.99;41.96
55022;BME280;68328;35.990;-86.756;2023-04-15T04:06:29;98642.22;;;20.46;42.06
55022;BME280;68328;35.990;-86.756;2023-04-15T04:08:55;98647.08;;;20.35;42.15
55022;BME280;68328;35.990;-86.756;2023-04-15T04:11:20;98647.58;;;20.58;42.01
55022;BME280;68328;35.990;-86.756;2023-04-15T04:13:46;98651.08;;;20.61;42.12
55022;BME280;68328;35.990;-86.756;2023-04-15T04:16:12;98652.45;;;20.51;42.50
55022;BME280;68328;35.990;-86.756;2023-04-15T04:18:36;98647.57;;;19.75;43.36
55022;BME280;68328;35.990;-86.756;2023-04-15T04:21:02;98651.00;;;20.31;42.93
55022;BME280;68328;35.990;-86.756;2023-04-15T04:23:28;98652.22;;;20.58;42.40
55022;BME280;68328;35.990;-86.756;2023-04-15T04:25:54;98650.39;;;19.78;43.48
55022;BME280;68328;35.990;-86.756;2023-04-15T04:28:18;98652.93;;;20.22;43.26
55022;BME280;68328;35.990;-86.756;2023-04-15T04:30:44;98650.95;;;20.40;43.38
55022;BME280;68328;35.990;-86.756;2023-04-15T04:33:09;98651.52;;;19.97;43.63
55022;BME280;68328;35.990;-86.756;2023-04-15T04:35:34;98651.77;;;19.79;44.44
55022;BME280;68328;35.990;-86.756;2023-04-15T04:38:00;98650.68;;;19.97;44.17
55022;BME280;68328;35.990;-86.756;2023-04-15T04:40:25;98648.18;;;19.68;44.28
55022;BME280;68328;35.990;-86.756;2023-04-15T04:42:50;98649.58;;;19.93;43.92
55022;BME280;68328;35.990;-86.756;2023-04-15T04:45:15;98651.54;;;19.51;44.56
55022;BME280;68328;35.990;-86.756;2023-04-15T04:47:40;98651.67;;;20.05;44.10
55022;BME280;68328;35.990;-86.756;2023-04-15T04:50:09;98654.31;;;19.38;44.68
55022;BME280;68328;35.990;-86.756;2023-04-15T04:52:32;98654.18;;;19.80;44.08
55022;BME280;68328;35.990;-86.756;2023-04-15T04:54:57;98656.91;;;19.96;44.25
55022;BME280;68328;35.990;-86.756;2023-04-15T04:57:22;98658.91;;;20.04;44.20
55022;BME280;68328;35.990;-86.756;2023-04-15T04:59:48;98662.80;;;20.00;44.32
55022;BME280;68328;35.990;-86.756;2023-04-15T05:02:14;98664.15;;;20.01;44.30
55022;BME280;68328;35.990;-86.756;2023-04-15T05:04:39;98663.84;;;20.04;44.05
55022;BME280;68328;35.990;-86.756;2023-04-15T05:07:04;98662.78;;;19.95;44.09
55022;BME280;68328;35.990;-86.756;2023-04-15T05:09:29;98661.84;;;19.82;44.56
55022;BME280;68328;35.990;-86.756;2023-04-15T05:11:55;98663.75;;;19.61;44.29
55022;BME280;68328;35.990;-86.756;2023-04-15T05:14:21;98665.94;;;19.80;44.36
55022;BME280;68328;35.990;-86.756;2023-04-15T05:16:46;98669.26;;;19.76;44.39
55022;BME280;68328;35.990;-86.756;2023-04-15T05:19:13;98672.49;;;19.81;44.22
55022;BME280;68328;35.990;-86.756;2023-04-15T05:21:37;98671.71;;;19.79;44.45
55022;BME280;68328;35.990;-86.756;2023-04-15T05:24:03;98673.51;;;19.81;43.77
55022;BME280;68328;35.990;-86.756;2023-04-15T05:26:28;98676.36;;;19.69;44.37
55022;BME280;68328;35.990;-86.756;2023-04-15T05:28:53;98675.82;;;19.53;44.87
55022;BME280;68328;35.990;-86.756;2023-04-15T05:31:20;98674.51;;;19.37;45.16
55022;BME280;68328;35.990;-86.756;2023-04-15T05:33:44;98671.64;;;19.57;45.22
55022;BME280;68328;35.990;-86.756;2023-04-15T05:36:10;98670.13;;;19.60;45.11
55022;BME280;68328;35.990;-86.756;2023-04-15T05:38:35;98670.11;;;19.76;45.29
55022;BME280;68328;35.990;-86.756;2023-04-15T05:41:00;98671.41;;;19.47;45.25
55022;BME280;68328;35.990;-86.756;2023-04-15T05:43:26;98669.09;;;19.67;45.15
55022;BME280;68328;35.990;-86.756;2023-04-15T05:45:51;98667.03;;;19.07;45.17
55022;BME280;68328;35.990;-86.756;2023-04-15T05:48:16;98660.73;;;19.54;45.43
55022;BME280;68328;35.990;-86.756;2023-04-15T05:50:42;98661.62;;;19.33;45.12
55022;BME280;68328;35.990;-86.756;2023-04-15T05:53:07;98662.85;;;19.42;45.58
55022;BME280;68328;35.990;-86.756;2023-04-15T05:55:32;98661.47;;;19.26;45.33
55022;BME280;68328;35.990;-86.756;2023-04-15T05:57:58;98662.54;;;19.27;44.95
55022;BME280;68328;35.990;-86.756;2023-04-15T06:00:23;98661.63;;;19.26;45.38
55022;BME280;68328;35.990;-86.756;2023-04-15T06:02:48;98661.46;;;19.28;45.44
55022;BME280;68328;35.990;-86.756;2023-04-15T06:05:13;98662.48;;;19.20;45.56
55022;BME280;68328;35.990;-86.756;2023-04-15T06:07:40;98661.42;;;19.18;45.49
55022;BME280;68328;35.990;-86.756;2023-04-15T06:10:05;98657.01;;;19.18;45.42
55022;BME280;68328;35.990;-86.756;2023-04-15T06:12:29;98654.39;;;19.38;45.53
55022;BME280;68328;35.990;-86.756;2023-04-15T06:14:55;98651.63;;;19.32;45.62
55022;BME280;68328;35.990;-86.756;2023-04-15T06:17:20;98647.75;;;19.00;45.87
55022;BME280;68328;35.990;-86.756;2023-04-15T06:19:46;98643.41;;;19.28;45.85
55022;BME280;68328;35.990;-86.756;2023-04-15T06:22:11;98640.18;;;19.11;45.87
55022;BME280;68328;35.990;-86.756;2023-04-15T06:24:36;98642.93;;;19.26;45.71
55022;BME280;68328;35.990;-86.756;2023-04-15T06:27:01;98643.53;;;19.19;45.99
55022;BME280;68328;35.990;-86.756;2023-04-15T06:29:27;98644.85;;;19.09;45.64
55022;BME280;68328;35.990;-86.756;2023-04-15T06:31:52;98646.84;;;18.81;46.09
55022;BME280;68328;35.990;-86.756;2023-04-15T06:34:18;98644.81;;;19.00;45.79
55022;BME280;68328;35.990;-86.756;2023-04-15T06:36:43;98643.18;;;19.06;46.31
55022;BME280;68328;35.990;-86.756;2023-04-15T06:39:08;98644.20;;;18.72;46.56
55022;BME280;68328;35.990;-86.756;2023-04-15T06:41:34;98643.50;;;18.79;46.64
55022;BME280;68328;35.990;-86.756;2023-04-15T06:43:59;98638.91;;;19.06;46.36
55022;BME280;68328;35.990;-86.756;2023-04-15T06:46:25;98640.10;;;18.77;46.54
55022;BME280;68328;35.990;-86.756;2023-04-15T06:48:49;98639.29;;;18.75;46.68
55022;BME280;68328;35.990;-86.756;2023-04-15T06:51:15;98633.70;;;18.69;46.83
55022;BME280;68328;35.990;-86.756;2023-04-15T06:53:40;98625.48;;;18.56;46.80
55022;BME280;68328;35.990;-86.756;2023-04-15T06:56:06;98621.11;;;18.82;46.93
55022;BME280;68328;35.990;-86.756;2023-04-15T06:58:31;98619.89;;;18.57;46.96
55022;BME280;68328;35.990;-86.756;2023-04-15T07:00:56;98617.51;;;18.59;46.73
55022;BME280;68328;35.990;-86.756;2023-04-15T07:03:22;98613.01;;;18.70;46.73
55022;BME280;68328;35.990;-86.756;2023-04-15T07:05:48;98619.39;;;18.41;46.96
55022;BME280;68328;35.990;-86.756;2023-04-15T07:08:12;98613.83;;;18.69;46.55
55022;BME280;68328;35.990;-86.756;2023-04-15T07:10:38;98615.51;;;18.55;47.03
55022;BME280;68328;35.990;-86.756;2023-04-15T07:13:03;98615.54;;;18.35;47.02
55022;BME280;68328;35.990;-86.756;2023-04-15T07:15:28;98619.71;;;18.36;46.26
55022;BME280;68328;35.990;-86.756;2023-04-15T07:17:55;98620.40;;;18.71;46.79
55022;BME280;68328;35.990;-86.756;2023-04-15T07:20:20;98621.05;;;18.39;46.31
55022;BME280;68328;35.990;-86.756;2023-04-15T07:22:45;98627.74;;;18.38;46.68
55022;BME280;68328;35.990;-86.756;2023-04-15T07:25:10;98628.11;;;18.27;46.39
55022;BME280;68328;35.990;-86.756;2023-04-15T07:27:36;98633.53;;;18.29;47.46
55022;BME280;68328;35.990;-86.756;2023-04-15T07:30:02;98635.57;;;17.95;47.86
55022;BME280;68328;35.990;-86.756;2023-04-15T07:32:28;98638.30;;;18.30;47.41
55022;BME280;68328;35.990;-86.756;2023-04-15T07:34:53;98642.33;;;17.90;47.65
55022;BME280;68328;35.990;-86.756;2023-04-15T07:37:18;98644.22;;;18.15;47.64
55022;BME280;68328;35.990;-86.756;2023-04-15T07:39:43;98640.84;;;17.96;47.22
55022;BME280;68328;35.990;-86.756;2023-04-15T07:42:09;98643.19;;;18.21;47.10
55022;BME280;68328;35.990;-86.756;2023-04-15T07:44:34;98641.95;;;18.20;46.83
55022;BME280;68328;35.990;-86.756;2023-04-15T07:47:00;98643.78;;;18.48;46.73
55022;BME280;68328;35.990;-86.756;2023-04-15T07:49:25;98647.40;;;18.45;47.00
55022;BME280;68328;35.990;-86.756;2023-04-15T07:51:50;98650.62;;;18.35;46.94
55022;BME280;68328;35.990;-86.756;2023-04-15T07:54:16;98652.44;;;18.33;46.88
55022;BME280;68328;35.990;-86.756;2023-04-15T07:56:41;98657.45;;;18.27;46.58
55022;BME280;68328;35.990;-86.756;2023-04-15T07:59:06;98658.93;;;18.07;46.26
55022;BME280;68328;35.990;-86.756;2023-04-15T08:01:33;98661.80;;;18.08;46.46
55022;BME280;68328;35.990;-86.756;2023-04-15T08:03:57;98666.00;;;18.26;46.35
55022;BME280;68328;35.990;-86.756;2023-04-15T08:06:23;98670.05;;;18.16;47.00
55022;BME280;68328;35.990;-86.756;2023-04-15T08:08:47;98670.99;;;18.09;46.99
55022;BME280;68328;35.990;-86.756;2023-04-15T08:11:12;98672.18;;;18.10;46.99
55022;BME280;68328;35.990;-86.756;2023-04-15T08:13:38;98672.57;;;18.06;46.84
55022;BME280;68328;35.990;-86.756;2023-04-15T08:16:13;98677.02;;;17.84;47.11
55022;BME280;68328;35.990;-86.756;2023-04-15T08:18:29;98680.24;;;17.82;47.55
55022;BME280;68328;35.990;-86.756;2023-04-15T08:20:53;98678.39;;;17.97;46.97
55022;BME280;68328;35.990;-86.756;2023-04-15T08:23:19;98682.15;;;17.97;47.08
55022;BME280;68328;35.990;-86.756;2023-04-15T08:25:44;98683.22;;;17.99;47.21
55022;BME280;68328;35.990;-86.756;2023-04-15T08:28:10;98680.41;;;17.98;47.27
55022;BME280;68328;35.990;-86.756;2023-04-15T08:30:36;98682.30;;;17.74;47.25
55022;BME280;68328;35.990;-86.756;2023-04-15T08:33:01;98680.98;;;17.71;46.74
55022;BME280;68328;35.990;-86.756;2023-04-15T08:35:26;98686.20;;;17.76;46.16
55022;BME280;68328;35.990;-86.756;2023-04-15T08:37:51;98683.39;;;17.96;46.05
55022;BME280;68328;35.990;-86.756;2023-04-15T08:40:16;98682.69;;;17.81;46.26
55022;BME280;68328;35.990;-86.756;2023-04-15T08:42:44;98681.59;;;17.72;46.53
55022;BME280;68328;35.990;-86.756;2023-04-15T08:45:09;98683.79;;;17.67;46.74
55022;BME280;68328;35.990;-86.756;2023-04-15T08:47:32;98689.31;;;17.60;46.81
55022;BME280;68328;35.990;-86.756;2023-04-15T08:49:58;98694.32;;;17.58;46.88
55022;BME280;68328;35.990;-86.756;2023-04-15T08:52:25;98699.23;;;17.40;47.41
55022;BME280;68328;35.990;-86.756;2023-04-15T08:54:49;98700.00;;;17.43;47.45
55022;BME280;68328;35.990;-86.756;2023-04-15T08:57:14;98701.82;;;17.31;46.71
55022;BME280;68328;35.990;-86.756;2023-04-15T08:59:40;98701.35;;;17.82;46.16
55022;BME280;68328;35.990;-86.756;2023-04-15T09:02:04;98705.04;;;17.46;46.31
55022;BME280;68328;35.990;-86.756;2023-04-15T09:04:31;98704.96;;;17.40;46.93
55022;BME280;68328;35.990;-86.756;2023-04-15T09:06:56;98700.16;;;17.39;46.45
55022;BME280;68328;35.990;-86.756;2023-04-15T09:09:21;98697.35;;;17.45;46.49
55022;BME280;68328;35.990;-86.756;2023-04-15T09:11:46;98695.85;;;17.42;46.30
55022;BME280;68328;35.990;-86.756;2023-04-15T09:14:12;98698.64;;;17.35;46.32
55022;BME280;68328;35.990;-86.756;2023-04-15T09:21:31;98691.14;;;17.21;46.55
55022;BME280;68328;35.990;-86.756;2023-04-15T09:23:57;98689.91;;;17.10;46.57
55022;BME280;68328;35.990;-86.756;2023-04-15T09:26:28;98691.94;;;17.05;46.40
55022;BME280;68328;35.990;-86.756;2023-04-15T09:28:45;98692.08;;;17.02;46.56
55022;BME280;68328;35.990;-86.756;2023-04-15T09:31:09;98693.07;;;17.04;46.45
55022;BME280;68328;35.990;-86.756;2023-04-15T09:33:40;98695.42;;;17.21;46.87
55022;BME280;68328;35.990;-86.756;2023-04-15T09:36:03;98702.48;;;17.22;47.18
55022;BME280;68328;35.990;-86.756;2023-04-15T09:38:27;98699.87;;;17.03;47.05
55022;BME280;68328;35.990;-86.756;2023-04-15T09:40:52;98700.98;;;17.07;46.68
55022;BME280;68328;35.990;-86.756;2023-04-15T09:43:18;98699.46;;;16.96;46.76
55022;BME280;68328;35.990;-86.756;2023-04-15T09:45:48;98703.46;;;16.90;45.90
55022;BME280;68328;35.990;-86.756;2023-04-15T09:48:18;98701.64;;;17.21;46.43
55022;BME280;68328;35.990;-86.756;2023-04-15T09:50:39;98712.60;;;16.61;46.85
55022;BME280;68328;35.990;-86.756;2023-04-15T09:53:03;98725.59;;;16.50;47.17
55022;BME280;68328;35.990;-86.756;2023-04-15T09:55:25;98732.20;;;16.92;47.33
55022;BME280;68328;35.990;-86.756;2023-04-15T09:57:50;98729.53;;;16.94;47.43
55022;BME280;68328;35.990;-86.756;2023-04-15T10:00:16;98727.38;;;16.91;47.01
55022;BME280;68328;35.990;-86.756;2023-04-15T10:02:41;98728.51;;;16.69;47.18
55022;BME280;68328;35.990;-86.756;2023-04-15T10:05:09;98730.12;;;16.37;47.21
55022;BME280;68328;35.990;-86.756;2023-04-15T10:07:32;98731.15;;;16.63;47.28
55022;BME280;68328;35.990;-86.756;2023-04-15T10:09:59;98730.78;;;16.52;46.92
55022;BME280;68328;35.990;-86.756;2023-04-15T10:12:23;98729.20;;;16.74;47.36
55022;BME280;68328;35.990;-86.756;2023-04-15T10:14:55;98730.70;;;16.72;47.35
55022;BME280;68328;35.990;-86.756;2023-04-15T10:17:17;98727.55;;;16.75;47.11
55022;BME280;68328;35.990;-86.756;2023-04-15T10:19:40;98737.79;;;16.58;47.15
55022;BME280;68328;35.990;-86.756;2023-04-15T10:22:04;98740.42;;;16.49;47.79
55022;BME280;68328;35.990;-86.756;2023-04-15T10:24:30;98740.39;;;16.52;47.36
55022;BME280;68328;35.990;-86.756;2023-04-15T10:26:56;98743.71;;;16.80;47.20
55022;BME280;68328;35.990;-86.756;2023-04-15T10:29:20;98739.22;;;16.63;47.58
55022;BME280;68328;35.990;-86.756;2023-04-15T10:31:46;98744.23;;;16.47;47.10
55022;BME280;68328;35.990;-86.756;2023-04-15T10:34:10;98742.13;;;16.56;47.24
55022;BME280;68328;35.990;-86.756;2023-04-15T10:36:36;98747.20;;;16.66;47.32
55022;BME280;68328;35.990;-86.756;2023-04-15T10:39:02;98750.28;;;16.46;47.69
55022;BME280;68328;35.990;-86.756;2023-04-15T10:41:28;98755.51;;;16.75;47.45
55022;BME280;68328;35.990;-86.756;2023-04-15T10:43:54;98761.24;;;16.41;47.43
55022;BME280;68328;35.990;-86.756;2023-04-15T10:46:21;98767.70;;;16.38;48.09
55022;BME280;68328;35.990;-86.756;2023-04-15T10:48:48;98770.22;;;16.95;48.26
55022;BME280;68328;35.990;-86.756;2023-04-15T10:51:09;98769.25;;;16.20;48.08
55022;BME280;68328;35.990;-86.756;2023-04-15T10:53:35;98772.78;;;16.41;48.00
55022;BME280;68328;35.990;-86.756;2023-04-15T10:56:00;98769.49;;;16.55;47.70
55022;BME280;68328;35.990;-86.756;2023-04-15T10:58:26;98770.48;;;16.86;46.73
55022;BME280;68328;35.990;-86.756;2023-04-15T11:00:56;98770.68;;;16.65;46.36
55022;BME280;68328;35.990;-86.756;2023-04-15T11:05:50;98771.74;;;17.05;47.02
55022;BME280;68328;35.990;-86.756;2023-04-15T11:08:09;98773.93;;;16.61;46.88
55022;BME280;68328;35.990;-86.756;2023-04-15T11:13:02;98782.98;;;16.57;46.98
55022;BME280;68328;35.990;-86.756;2023-04-15T11:15:27;98790.64;;;16.88;47.23
55022;BME280;68328;35.990;-86.756;2023-04-15T11:17:51;98787.68;;;16.89;46.65
55022;BME280;68328;35.990;-86.756;2023-04-15T11:20:16;98789.40;;;16.95;47.30
55022;BME280;68328;35.990;-86.756;2023-04-15T11:22:47;98793.90;;;16.89;46.31
55022;BME280;68328;35.990;-86.756;2023-04-15T11:25:07;98800.16;;;16.67;46.54
55022;BME280;68328;35.990;-86.756;2023-04-15T11:27:33;98804.28;;;16.62;46.65
55022;BME280;68328;35.990;-86.756;2023-04-15T11:29:58;98812.78;;;16.70;46.94
55022;BME280;68328;35.990;-86.756;2023-04-15T11:32:23;98818.29;;;16.81;46.99
55022;BME280;68328;35.990;-86.756;2023-04-15T11:34:51;98820.00;;;16.85;47.36
55022;BME280;68328;35.990;-86.756;2023-04-15T11:37:15;98825.96;;;16.93;47.43
55022;BME280;68328;35.990;-86.756;2023-04-15T11:39:41;98834.28;;;17.08;47.41
55022;BME280;68328;35.990;-86.756;2023-04-15T11:42:15;98842.42;;;17.15;47.60
55022;BME280;68328;35.990;-86.756;2023-04-15T11:44:31;98848.35;;;17.15;48.01
55022;BME280;68328;35.990;-86.756;2023-04-15T11:46:57;98853.50;;;17.41;48.36
55022;BME280;68328;35.990;-86.756;2023-04-15T11:49:28;98851.71;;;17.11;49.40
55022;BME280;68328;35.990;-86.756;2023-04-15T11:51:47;98853.31;;;17.25;49.38
55022;BME280;68328;35.990;-86.756;2023-04-15T11:54:17;98860.89;;;17.21;49.78
55022;BME280;68328;35.990;-86.756;2023-04-15T11:56:38;98868.94;;;17.21;50.16
55022;BME280;68328;35.990;-86.756;2023-04-15T11:59:03;98873.33;;;17.13;50.13
55022;BME280;68328;35.990;-86.756;2023-04-15T12:01:33;98876.24;;;17.19;50.16
55022;BME280;68328;35.990;-86.756;2023-04-15T12:03:54;98878.15;;;17.33;50.03
55022;BME280;68328;35.990;-86.756;2023-04-15T12:06:20;98886.14;;;17.37;50.29
55022;BME280;68328;35.990;-86.756;2023-04-15T12:08:56;98890.46;;;17.23;50.75
55022;BME280;68328;35.990;-86.756;2023-04-15T12:11:13;98892.56;;;17.65;51.43
55022;BME280;68328;35.990;-86.756;2023-04-15T12:13:37;98891.08;;;15.90;55.28
55022;BME280;68328;35.990;-86.756;2023-04-15T12:16:03;98893.84;;;14.64;58.57
55022;BME280;68328;35.990;-86.756;2023-04-15T12:18:28;98896.13;;;15.93;55.94
55022;BME280;68328;35.990;-86.756;2023-04-15T12:20:53;98894.61;;;14.48;59.34
55022;BME280;68328;35.990;-86.756;2023-04-15T12:23:19;98899.80;;;15.30;56.69
55022;BME280;68328;35.990;-86.756;2023-04-15T12:25:51;98899.78;;;16.79;53.51
55022;BME280;68328;35.990;-86.756;2023-04-15T12:28:11;98905.58;;;16.36;54.13
55022;BME280;68328;35.990;-86.756;2023-04-15T12:33:02;98913.32;;;15.07;57.10
55022;BME280;68328;35.990;-86.756;2023-04-15T12:35:27;98915.61;;;16.88;53.64
55022;BME280;68328;35.990;-86.756;2023-04-15T12:37:53;98925.97;;;17.68;52.40
55022;BME280;68328;35.990;-86.756;2023-04-15T12:40:18;98924.01;;;17.51;51.60
55022;BME280;68328;35.990;-86.756;2023-04-15T12:42:42;98922.84;;;17.78;51.69
55022;BME280;68328;35.990;-86.756;2023-04-15T12:45:12;98927.06;;;17.92;50.68
55022;BME280;68328;35.990;-86.756;2023-04-15T12:47:33;98936.78;;;17.91;50.65